sensor_id;sensor_type;location;lat;lon;timestamp;temperature;humidity
27619;DHT22;15039;50.830;4.730;2023-05-01T00:00:40;14.60;99.90
27619;DHT22;15039;50.830;4.730;2023-05-01T00:03:06;14.40;99.90
27619;DHT22;15039;50.830;4.730;2023-05-01T00:05:32;14.40;99.90
27619;DHT22;15039;50.830;4.730;2023-05-01T00:07:58;14.40;99.90
27619;DHT22;15039;50.830;4.730;2023-05-01T00:10:24;14.40;99.90
27619;DHT22;15039;50.830;4.730;2023-05-01T00:12:51;14.30;99.90
27619;DHT22;15039;50.830;4.730;2023-05-01T00:15:17;14.30;99.90
27619;DHT22;15039;50.830;4.730;2023-05-01T00:17:42;14.30;99.90
27619;DHT22;15039;50.830;4.730;2023-05-01T00:20:08;14.30;99.90
27619;DHT22;15039;50.830;4.730;2023-05-01T00:22:34;14.30;99.90
27619;DHT22;15039;50.830;4.730;2023-05-01T00:25:00;14.30;99.90
27619;DHT22;15039;50.830;4.730;2023-05-01T00:27:26;14.30;99.90
27619;DHT22;15039;50.830;4.730;2023-05-01T00:29:51;14.20;99.90
27619;DHT22;15039;50.830;4.730;2023-05-01T00:32:17;14.30;99.90
27619;DHT22;15039;50.830;4.730;2023-05-01T00:34:43;14.40;99.90
27619;DHT22;15039;50.830;4.730;2023-05-01T00:37:10;14.40;99.90
27619;DHT22;15039;50.830;4.730;2023-05-01T00:39:36;14.40;99.90
27619;DHT22;15039;50.830;4.730;2023-05-01T00:42:01;14.40;99.90
27619;DHT22;15039;50.830;4.730;2023-05-01T00:44:28;14.30;99.90
27619;DHT22;15039;50.830;4.730;2023-05-01T00:46:53;14.30;99.90
27619;DHT22;15039;50.830;4.730;2023-05-01T00:49:20;14.50;99.90
27619;DHT22;15039;50.830;4.730;2023-05-01T00:51:48;14.60;99.90
27619;DHT22;15039;50.830;4.730;2023-05-01T00:54:17;14.60;99.90
27619;DHT22;15039;50.830;4.730;2023-05-01T00:56:45;14.60;99.90
27619;DHT22;15039;50.830;4.730;2023-05-01T00:59:11;14.50;99.90
27619;DHT22;15039;50.830;4.730;2023-05-01T01:01:37;14.40;99.90
27619;DHT22;15039;50.830;4.730;2023-05-01T01:04:03;14.30;99.90
27619;DHT22;15039;50.830;4.730;2023-05-01T01:10:01;14.20;99.90
27619;DHT22;15039;50.830;4.730;2023-05-01T01:15:17;14.20;99.90
27619;DHT22;15039;50.830;4.730;2023-05-01T01:17:52;14.20;99.90
27619;DHT22;15039;50.830;4.730;2023-05-01T01:20:39;14.10;99.90
27619;DHT22;15039;50.830;4.730;2023-05-01T01:31:50;14.20;99.90
27619;DHT22;15039;50.830;4.730;2023-05-01T01:34:24;14.10;99.90
27619;DHT22;15039;50.830;4.730;2023-05-01T01:36:59;14.10;99.90
27619;DHT22;15039;50.830;4.730;2023-05-01T01:41:57;14.00;99.90
27619;DHT22;15039;50.830;4.730;2023-05-01T01:44:35;14.00;99.90
27619;DHT22;15039;50.830;4.730;2023-05-01T01:47:04;14.00;99.90
27619;DHT22;15039;50.830;4.730;2023-05-01T01:49:31;13.90;99.90
27619;DHT22;15039;50.830;4.730;2023-05-01T01:52:00;13.90;99.90
27619;DHT22;15039;50.830;4.730;2023-05-01T01:54:34;14.00;99.90
27619;DHT22;15039;50.830;4.730;2023-05-01T01:57:01;14.10;99.90
27619;DHT22;15039;50.830;4.730;2023-05-01T01:59:30;14.10;99.90
27619;DHT22;15039;50.830;4.730;2023-05-01T02:01:58;13.90;99.90
27619;DHT22;15039;50.830;4.730;2023-05-01T02:04:27;13.90;99.90
27619;DHT22;15039;50.830;4.730;2023-05-01T02:06:55;14.00;99.90
27619;DHT22;15039;50.830;4.730;2023-05-01T02:09:24;14.00;99.90
27619;DHT22;15039;50.830;4.730;2023-05-01T02:11:52;13.90;99.90
27619;DHT22;15039;50.830;4.730;2023-05-01T02:14:19;13.70;99.90
27619;DHT22;15039;50.830;4.730;2023-05-01T02:16:46;13.70;99.90
27619;DHT22;15039;50.830;4.730;2023-05-01T02:19:14;13.70;99.90
27619;DHT22;15039;50.830;4.730;2023-05-01T02:21:42;13.70;99.90
27619;DHT22;15039;50.830;4.730;2023-05-01T02:24:12;13.80;99.90
27619;DHT22;15039;50.830;4.730;2023-05-01T02:26:42;13.60;99.90
27619;DHT22;15039;50.830;4.730;2023-05-01T02:29:12;13.70;99.90
27619;DHT22;15039;50.830;4.730;2023-05-01T02:31:38;13.60;99.90
27619;DHT22;15039;50.830;4.730;2023-05-01T02:34:03;13.60;99.90
27619;DHT22;15039;50.830;4.730;2023-05-01T02:36:29;13.60;99.90
27619;DHT22;15039;50.830;4.730;2023-05-01T02:38:56;13.50;99.90
27619;DHT22;15039;50.830;4.730;2023-05-01T02:41:23;13.60;99.90
27619;DHT22;15039;50.830;4.730;2023-05-01T02:43:53;13.50;99.90
27619;DHT22;15039;50.830;4.730;2023-05-01T02:46:23;13.50;99.90
27619;DHT22;15039;50.830;4.730;2023-05-01T02:48:50;13.60;99.90
27619;DHT22;15039;50.830;4.730;2023-05-01T02:51:17;13.60;99.90
27619;DHT22;15039;50.830;4.730;2023-05-01T02:53:44;13.60;99.90
27619;DHT22;15039;50.830;4.730;2023-05-01T02:56:11;13.50;99.90
27619;DHT22;15039;50.830;4.730;2023-05-01T02:58:37;13.50;99.90
27619;DHT22;15039;50.830;4.730;2023-05-01T03:01:03;13.50;99.90
27619;DHT22;15039;50.830;4.730;2023-05-01T03:03:29;13.50;99.90
27619;DHT22;15039;50.830;4.730;2023-05-01T03:05:55;13.50;99.90
27619;DHT22;15039;50.830;4.730;2023-05-01T03:08:21;13.40;99.90
27619;DHT22;15039;50.830;4.730;2023-05-01T03:10:47;13.40;99.90
27619;DHT22;15039;50.830;4.730;2023-05-01T03:13:13;13.40;99.90
27619;DHT22;15039;50.830;4.730;2023-05-01T03:15:39;13.40;99.90
27619;DHT22;15039;50.830;4.730;2023-05-01T03:18:05;13.40;99.90
27619;DHT22;15039;50.830;4.730;2023-05-01T03:20:31;13.40;99.90
27619;DHT22;15039;50.830;4.730;2023-05-01T03:22:57;13.30;99.90
27619;DHT22;15039;50.830;4.730;2023-05-01T03:25:23;13.50;99.90
27619;DHT22;15039;50.830;4.730;2023-05-01T03:27:49;13.50;99.90
27619;DHT22;15039;50.830;4.730;2023-05-01T03:30:15;13.40;99.90
27619;DHT22;15039;50.830;4.730;2023-05-01T03:32:43;13.40;99.90
27619;DHT22;15039;50.830;4.730;2023-05-01T03:35:09;13.40;99.90
27619;DHT22;15039;50.830;4.730;2023-05-01T03:37:35;13.40;99.90
27619;DHT22;15039;50.830;4.730;2023-05-01T03:40:01;13.50;99.90
27619;DHT22;15039;50.830;4.730;2023-05-01T03:42:26;13.50;99.90
27619;DHT22;15039;50.830;4.730;2023-05-01T03:44:52;13.40;99.90
27619;DHT22;15039;50.830;4.730;2023-05-01T03:47:18;13.30;99.90
27619;DHT22;15039;50.830;4.730;2023-05-01T03:49:44;13.20;99.90
27619;DHT22;15039;50.830;4.730;2023-05-01T03:52:10;13.20;99.90
27619;DHT22;15039;50.830;4.730;2023-05-01T03:54:39;13.10;99.90
27619;DHT22;15039;50.830;4.730;2023-05-01T03:57:04;13.10;99.90
27619;DHT22;15039;50.830;4.730;2023-05-01T03:59:30;13.10;99.90
27619;DHT22;15039;50.830;4.730;2023-05-01T04:01:56;13.00;99.90
27619;DHT22;15039;50.830;4.730;2023-05-01T04:04:21;13.00;99.90
27619;DHT22;15039;50.830;4.730;2023-05-01T04:06:48;13.20;99.90
27619;DHT22;15039;50.830;4.730;2023-05-01T04:09:14;13.10;99.90
27619;DHT22;15039;50.830;4.730;2023-05-01T04:11:40;13.20;99.90
27619;DHT22;15039;50.830;4.730;2023-05-01T04:14:06;13.20;99.90
27619;DHT22;15039;50.830;4.730;2023-05-01T04:16:32;13.10;99.90
27619;DHT22;15039;50.830;4.730;2023-05-01T04:18:57;13.00;99.90
27619;DHT22;15039;50.830;4.730;2023-05-01T04:21:23;12.80;99.90
27619;DHT22;15039;50.830;4.730;2023-05-01T04:23:48;12.80;99.90
27619;DHT22;15039;50.830;4.730;2023-05-01T04:26:14;12.80;99.90
27619;DHT22;15039;50.830;4.730;2023-05-01T04:28:40;12.80;99.90
27619;DHT22;15039;50.830;4.730;2023-05-01T04:31:06;12.90;99.90
27619;DHT22;15039;50.830;4.730;2023-05-01T04:33:32;12.90;99.90
27619;DHT22;15039;50.830;4.730;2023-05-01T04:35:57;13.00;99.90
27619;DHT22;15039;50.830;4.730;2023-05-01T04:38:23;13.00;99.90
27619;DHT22;15039;50.830;4.730;2023-05-01T04:40:49;13.10;99.90
27619;DHT22;15039;50.830;4.730;2023-05-01T04:43:15;13.10;99.90
27619;DHT22;15039;50.830;4.730;2023-05-01T04:45:40;13.00;99.90
27619;DHT22;15039;50.830;4.730;2023-05-01T04:48:07;13.00;99.90
27619;DHT22;15039;50.830;4.730;2023-05-01T04:50:33;13.00;99.90
27619;DHT22;15039;50.830;4.730;2023-05-01T04:52:58;12.90;99.90
27619;DHT22;15039;50.830;4.730;2023-05-01T04:55:24;12.90;99.90
27619;DHT22;15039;50.830;4.730;2023-05-01T04:57:51;13.00;99.90
27619;DHT22;15039;50.830;4.730;2023-05-01T05:00:16;13.10;99.90
27619;DHT22;15039;50.830;4.730;2023-05-01T05:02:44;13.10;99.90
27619;DHT22;15039;50.830;4.730;2023-05-01T05:05:10;13.20;99.90
27619;DHT22;15039;50.830;4.730;2023-05-01T05:07:36;13.20;99.90
27619;DHT22;15039;50.830;4.730;2023-05-01T05:10:01;13.20;99.90
27619;DHT22;15039;50.830;4.730;2023-05-01T05:12:27;13.20;99.90
27619;DHT22;15039;50.830;4.730;2023-05-01T05:14:53;13.10;99.90
27619;DHT22;15039;50.830;4.730;2023-05-01T05:17:18;13.20;99.90
27619;DHT22;15039;50.830;4.730;2023-05-01T05:19:44;13.10;99.90
27619;DHT22;15039;50.830;4.730;2023-05-01T05:22:10;13.10;99.90
27619;DHT22;15039;50.830;4.730;2023-05-01T05:24:37;13.10;99.90
27619;DHT22;15039;50.830;4.730;2023-05-01T05:27:03;13.20;99.90
27619;DHT22;15039;50.830;4.730;2023-05-01T05:29:29;13.30;99.90
27619;DHT22;15039;50.830;4.730;2023-05-01T05:31:54;13.30;99.90
27619;DHT22;15039;50.830;4.730;2023-05-01T05:34:23;13.40;99.90
27619;DHT22;15039;50.830;4.730;2023-05-01T05:36:48;13.40;99.90
27619;DHT22;15039;50.830;4.730;2023-05-01T05:39:14;13.40;99.90
27619;DHT22;15039;50.830;4.730;2023-05-01T05:41:40;13.40;99.90
27619;DHT22;15039;50.830;4.730;2023-05-01T05:44:06;13.60;99.90
27619;DHT22;15039;50.830;4.730;2023-05-01T05:46:31;13.60;99.90
27619;DHT22;15039;50.830;4.730;2023-05-01T05:48:57;13.60;99.90
27619;DHT22;15039;50.830;4.730;2023-05-01T05:51:23;13.70;99.90
27619;DHT22;15039;50.830;4.730;2023-05-01T05:53:48;13.90;99.90
27619;DHT22;15039;50.830;4.730;2023-05-01T05:56:14;14.00;99.90
27619;DHT22;15039;50.830;4.730;2023-05-01T05:58:40;14.00;99.90
27619;DHT22;15039;50.830;4.730;2023-05-01T06:01:05;14.00;99.90
27619;DHT22;15039;50.830;4.730;2023-05-01T06:03:31;14.10;99.90
27619;DHT22;15039;50.830;4.730;2023-05-01T06:05:57;14.10;99.90
27619;DHT22;15039;50.830;4.730;2023-05-01T06:08:23;14.30;99.90
27619;DHT22;15039;50.830;4.730;2023-05-01T06:10:48;14.40;99.90
27619;DHT22;15039;50.830;4.730;2023-05-01T06:13:14;14.50;99.90
27619;DHT22;15039;50.830;4.730;2023-05-01T06:15:40;14.50;99.90
27619;DHT22;15039;50.830;4.730;2023-05-01T06:18:07;14.50;99.90
27619;DHT22;15039;50.830;4.730;2023-05-01T06:20:33;14.50;99.90
27619;DHT22;15039;50.830;4.730;2023-05-01T06:22:59;14.60;99.90
27619;DHT22;15039;50.830;4.730;2023-05-01T06:25:25;14.70;99.90
27619;DHT22;15039;50.830;4.730;2023-05-01T06:27:51;14.90;99.90
27619;DHT22;15039;50.830;4.730;2023-05-01T06:30:17;15.00;99.90
27619;DHT22;15039;50.830;4.730;2023-05-01T06:32:46;15.20;99.90
27619;DHT22;15039;50.830;4.730;2023-05-01T06:35:13;15.40;99.90
27619;DHT22;15039;50.830;4.730;2023-05-01T06:37:39;15.50;99.90
27619;DHT22;15039;50.830;4.730;2023-05-01T06:40:06;15.50;99.90
27619;DHT22;15039;50.830;4.730;2023-05-01T06:42:32;15.70;99.90
27619;DHT22;15039;50.830;4.730;2023-05-01T06:44:58;15.70;99.90
27619;DHT22;15039;50.830;4.730;2023-05-01T06:47:25;15.90;99.90
27619;DHT22;15039;50.830;4.730;2023-05-01T06:49:51;16.00;99.90
27619;DHT22;15039;50.830;4.730;2023-05-01T06:52:17;16.10;99.90
27619;DHT22;15039;50.830;4.730;2023-05-01T06:54:42;16.30;99.90
27619;DHT22;15039;50.830;4.730;2023-05-01T06:57:08;16.50;99.90
27619;DHT22;15039;50.830;4.730;2023-05-01T06:59:34;16.60;99.90
27619;DHT22;15039;50.830;4.730;2023-05-01T07:02:00;16.60;99.90
27619;DHT22;15039;50.830;4.730;2023-05-01T07:04:25;16.60;99.90
27619;DHT22;15039;50.830;4.730;2023-05-01T07:06:51;16.70;99.90
27619;DHT22;15039;50.830;4.730;2023-05-01T07:09:16;16.80;99.90
27619;DHT22;15039;50.830;4.730;2023-05-01T07:11:42;16.80;99.90
27619;DHT22;15039;50.830;4.730;2023-05-01T07:14:08;16.90;99.90
27619;DHT22;15039;50.830;4.730;2023-05-01T07:16:34;16.90;99.90
27619;DHT22;15039;50.830;4.730;2023-05-01T07:19:00;16.80;99.90
27619;DHT22;15039;50.830;4.730;2023-05-01T07:21:25;16.80;99.90
27619;DHT22;15039;50.830;4.730;2023-05-01T07:23:51;16.80;99.90
27619;DHT22;15039;50.830;4.730;2023-05-01T07:26:17;16.70;99.90
27619;DHT22;15039;50.830;4.730;2023-05-01T07:28:43;16.70;99.90
27619;DHT22;15039;50.830;4.730;2023-05-01T07:31:09;16.50;99.90
27619;DHT22;15039;50.830;4.730;2023-05-01T07:33:35;16.50;99.90
27619;DHT22;15039;50.830;4.730;2023-05-01T07:36:01;16.50;99.90
27619;DHT22;15039;50.830;4.730;2023-05-01T07:38:28;16.60;99.90
27619;DHT22;15039;50.830;4.730;2023-05-01T07:40:54;16.60;99.90
27619;DHT22;15039;50.830;4.730;2023-05-01T07:43:21;16.80;99.90
27619;DHT22;15039;50.830;4.730;2023-05-01T07:45:59;16.80;99.90
27619;DHT22;15039;50.830;4.730;2023-05-01T07:48:26;16.90;99.90
27619;DHT22;15039;50.830;4.730;2023-05-01T07:50:52;17.00;99.90
27619;DHT22;15039;50.830;4.730;2023-05-01T07:53:19;17.20;99.90
27619;DHT22;15039;50.830;4.730;2023-05-01T07:55:47;17.40;99.90
27619;DHT22;15039;50.830;4.730;2023-05-01T07:58:13;17.40;99.90
27619;DHT22;15039;50.830;4.730;2023-05-01T08:00:39;17.50;99.90
27619;DHT22;15039;50.830;4.730;2023-05-01T08:03:05;17.70;99.90
27619;DHT22;15039;50.830;4.730;2023-05-01T08:05:30;17.80;99.90
27619;DHT22;15039;50.830;4.730;2023-05-01T08:07:57;17.80;99.90
27619;DHT22;15039;50.830;4.730;2023-05-01T08:10:22;17.70;99.90
27619;DHT22;15039;50.830;4.730;2023-05-01T08:12:49;17.80;99.90
27619;DHT22;15039;50.830;4.730;2023-05-01T08:15:18;17.70;99.90
27619;DHT22;15039;50.830;4.730;2023-05-01T08:17:46;17.80;99.90
27619;DHT22;15039;50.830;4.730;2023-05-01T08:20:12;17.90;99.90
27619;DHT22;15039;50.830;4.730;2023-05-01T08:22:38;18.10;99.90
27619;DHT22;15039;50.830;4.730;2023-05-01T08:25:04;18.30;99.90
27619;DHT22;15039;50.830;4.730;2023-05-01T08:27:30;18.30;99.90
27619;DHT22;15039;50.830;4.730;2023-05-01T08:29:57;18.50;99.90
27619;DHT22;15039;50.830;4.730;2023-05-01T08:32:22;18.30;99.90
27619;DHT22;15039;50.830;4.730;2023-05-01T08:34:48;18.40;99.90
27619;DHT22;15039;50.830;4.730;2023-05-01T08:37:13;18.50;99.90
27619;DHT22;15039;50.830;4.730;2023-05-01T08:39:39;18.60;99.90
27619;DHT22;15039;50.830;4.730;2023-05-01T08:42:08;18.60;99.90
27619;DHT22;15039;50.830;4.730;2023-05-01T08:44:37;18.70;99.90
27619;DHT22;15039;50.830;4.730;2023-05-01T08:49:32;18.80;99.90
27619;DHT22;15039;50.830;4.730;2023-05-01T08:52:01;18.90;99.90
27619;DHT22;15039;50.830;4.730;2023-05-01T08:54:30;18.80;99.90
27619;DHT22;15039;50.830;4.730;2023-05-01T08:57:00;18.80;99.90
27619;DHT22;15039;50.830;4.730;2023-05-01T08:59:27;18.70;99.90
27619;DHT22;15039;50.830;4.730;2023-05-01T09:01:55;18.80;99.90
27619;DHT22;15039;50.830;4.730;2023-05-01T09:04:21;18.70;99.90
27619;DHT22;15039;50.830;4.730;2023-05-01T09:06:47;18.60;99.90
27619;DHT22;15039;50.830;4.730;2023-05-01T09:09:15;18.50;99.90
27619;DHT22;15039;50.830;4.730;2023-05-01T09:11:45;18.40;99.90
27619;DHT22;15039;50.830;4.730;2023-05-01T09:14:11;18.30;99.90
27619;DHT22;15039;50.830;4.730;2023-05-01T09:16:37;18.40;99.90
27619;DHT22;15039;50.830;4.730;2023-05-01T09:19:03;18.70;99.90
27619;DHT22;15039;50.830;4.730;2023-05-01T09:21:30;18.70;99.90
27619;DHT22;15039;50.830;4.730;2023-05-01T09:23:56;18.80;99.90
27619;DHT22;15039;50.830;4.730;2023-05-01T09:26:22;18.70;99.90
27619;DHT22;15039;50.830;4.730;2023-05-01T09:28:48;18.90;99.90
27619;DHT22;15039;50.830;4.730;2023-05-01T09:31:27;19.00;99.90
27619;DHT22;15039;50.830;4.730;2023-05-01T09:33:58;19.00;99.90
27619;DHT22;15039;50.830;4.730;2023-05-01T09:36:25;18.80;99.90
27619;DHT22;15039;50.830;4.730;2023-05-01T09:38:51;18.60;99.90
27619;DHT22;15039;50.830;4.730;2023-05-01T09:41:18;18.60;99.90
27619;DHT22;15039;50.830;4.730;2023-05-01T09:43:52;18.60;99.90
27619;DHT22;15039;50.830;4.730;2023-05-01T09:46:20;18.70;99.90
27619;DHT22;15039;50.830;4.730;2023-05-01T09:51:26;18.50;99.90
27619;DHT22;15039;50.830;4.730;2023-05-01T09:54:04;18.50;99.90
27619;DHT22;15039;50.830;4.730;2023-05-01T09:56:32;18.50;99.90
27619;DHT22;15039;50.830;4.730;2023-05-01T09:59:17;18.60;99.90
27619;DHT22;15039;50.830;4.730;2023-05-01T10:01:45;18.80;99.90
27619;DHT22;15039;50.830;4.730;2023-05-01T10:04:11;18.80;99.90
27619;DHT22;15039;50.830;4.730;2023-05-01T10:06:38;18.90;99.90
27619;DHT22;15039;50.830;4.730;2023-05-01T10:09:08;19.00;99.90
27619;DHT22;15039;50.830;4.730;2023-05-01T10:11:51;19.20;99.90
27619;DHT22;15039;50.830;4.730;2023-05-01T10:14:22;19.40;99.90
27619;DHT22;15039;50.830;4.730;2023-05-01T10:16:56;19.60;99.90
27619;DHT22;15039;50.830;4.730;2023-05-01T10:19:24;19.90;99.90
27619;DHT22;15039;50.830;4.730;2023-05-01T10:21:50;20.10;99.90
27619;DHT22;15039;50.830;4.730;2023-05-01T10:24:21;20.20;99.90
27619;DHT22;15039;50.830;4.730;2023-05-01T10:26:47;20.10;99.90
27619;DHT22;15039;50.830;4.730;2023-05-01T10:29:14;20.00;99.90
27619;DHT22;15039;50.830;4.730;2023-05-01T10:32:30;19.60;99.90
27619;DHT22;15039;50.830;4.730;2023-05-01T10:35:14;19.70;99.90
27619;DHT22;15039;50.830;4.730;2023-05-01T10:37:59;19.60;99.90
27619;DHT22;15039;50.830;4.730;2023-05-01T10:43:28;19.00;99.90
27619;DHT22;15039;50.830;4.730;2023-05-01T10:48:52;19.20;99.90
27619;DHT22;15039;50.830;4.730;2023-05-01T10:51:25;19.30;99.90
27619;DHT22;15039;50.830;4.730;2023-05-01T10:54:23;19.30;99.90
27619;DHT22;15039;50.830;4.730;2023-05-01T10:56:59;19.40;99.90
27619;DHT22;15039;50.830;4.730;2023-05-01T10:59:27;19.30;99.90
27619;DHT22;15039;50.830;4.730;2023-05-01T11:02:21;19.00;99.90
27619;DHT22;15039;50.830;4.730;2023-05-01T11:04:49;18.80;99.90
27619;DHT22;15039;50.830;4.730;2023-05-01T11:07:22;18.50;99.90
27619;DHT22;15039;50.830;4.730;2023-05-01T11:09:58;18.40;99.90
27619;DHT22;15039;50.830;4.730;2023-05-01T11:17:50;18.60;99.90
27619;DHT22;15039;50.830;4.730;2023-05-01T11:23:02;18.90;99.90
27619;DHT22;15039;50.830;4.730;2023-05-01T11:25:28;18.90;99.90
27619;DHT22;15039;50.830;4.730;2023-05-01T11:28:02;19.10;99.90
27619;DHT22;15039;50.830;4.730;2023-05-01T11:30:38;19.20;99.90
27619;DHT22;15039;50.830;4.730;2023-05-01T11:33:04;18.90;99.90
27619;DHT22;15039;50.830;4.730;2023-05-01T11:35:31;18.60;99.90
27619;DHT22;15039;50.830;4.730;2023-05-01T11:38:01;18.30;99.90
27619;DHT22;15039;50.830;4.730;2023-05-01T11:40:32;18.30;99.90
27619;DHT22;15039;50.830;4.730;2023-05-01T11:45:27;18.10;99.90
27619;DHT22;15039;50.830;4.730;2023-05-01T11:47:54;18.00;99.90
27619;DHT22;15039;50.830;4.730;2023-05-01T11:50:30;17.60;99.90
27619;DHT22;15039;50.830;4.730;2023-05-01T11:52:56;17.50;99.90
27619;DHT22;15039;50.830;4.730;2023-05-01T11:55:30;17.50;99.90
27619;DHT22;15039;50.830;4.730;2023-05-01T11:57:57;17.60;99.90
27619;DHT22;15039;50.830;4.730;2023-05-01T12:00:28;17.70;99.90
27619;DHT22;15039;50.830;4.730;2023-05-01T12:03:01;17.80;99.90
27619;DHT22;15039;50.830;4.730;2023-05-01T12:05:35;17.90;99.90
27619;DHT22;15039;50.830;4.730;2023-05-01T12:08:19;18.20;99.90
27619;DHT22;15039;50.830;4.730;2023-05-01T12:10:48;18.30;99.90
27619;DHT22;15039;50.830;4.730;2023-05-01T12:13:15;18.50;99.90
27619;DHT22;15039;50.830;4.730;2023-05-01T12:15:43;18.50;99.90
27619;DHT22;15039;50.830;4.730;2023-05-01T12:18:11;18.60;99.90
27619;DHT22;15039;50.830;4.730;2023-05-01T12:20:45;18.70;99.90
27619;DHT22;15039;50.830;4.730;2023-05-01T12:23:32;19.00;99.90
27619;DHT22;15039;50.830;4.730;2023-05-01T12:26:34;19.20;99.90
27619;DHT22;15039;50.830;4.730;2023-05-01T12:29:06;19.40;99.90
27619;DHT22;15039;50.830;4.730;2023-05-01T12:31:34;19.50;99.90
27619;DHT22;15039;50.830;4.730;2023-05-01T12:34:05;19.70;99.90
27619;DHT22;15039;50.830;4.730;2023-05-01T12:36:33;19.50;99.90
27619;DHT22;15039;50.830;4.730;2023-05-01T12:39:06;19.00;99.90
27619;DHT22;15039;50.830;4.730;2023-05-01T12:41:42;18.50;99.90
27619;DHT22;15039;50.830;4.730;2023-05-01T12:44:26;18.40;99.90
27619;DHT22;15039;50.830;4.730;2023-05-01T12:47:12;18.30;99.90
27619;DHT22;15039;50.830;4.730;2023-05-01T12:49:38;18.20;99.90
27619;DHT22;15039;50.830;4.730;2023-05-01T12:52:06;18.00;99.90
27619;DHT22;15039;50.830;4.730;2023-05-01T12:54:36;17.80;99.90
27619;DHT22;15039;50.830;4.730;2023-05-01T12:57:14;17.70;99.90
27619;DHT22;15039;50.830;4.730;2023-05-01T12:59:45;17.70;99.90
27619;DHT22;15039;50.830;4.730;2023-05-01T13:02:13;17.70;99.90
27619;DHT22;15039;50.830;4.730;2023-05-01T13:04:42;17.70;99.90
27619;DHT22;15039;50.830;4.730;2023-05-01T13:07:12;17.80;99.90
27619;DHT22;15039;50.830;4.730;2023-05-01T13:10:00;18.00;99.90
27619;DHT22;15039;50.830;4.730;2023-05-01T13:12:29;18.40;99.90
27619;DHT22;15039;50.830;4.730;2023-05-01T13:14:57;18.80;99.90
27619;DHT22;15039;50.830;4.730;2023-05-01T13:17:28;19.00;99.90
27619;DHT22;15039;50.830;4.730;2023-05-01T13:19:56;19.20;99.90
27619;DHT22;15039;50.830;4.730;2023-05-01T13:22:36;19.50;99.90
27619;DHT22;15039;50.830;4.730;2023-05-01T13:25:16;19.90;99.90
27619;DHT22;15039;50.830;4.730;2023-05-01T13:27:52;20.20;99.90
27619;DHT22;15039;50.830;4.730;2023-05-01T13:30:31;20.20;99.90
27619;DHT22;15039;50.830;4.730;2023-05-01T13:32:57;20.00;99.90
27619;DHT22;15039;50.830;4.730;2023-05-01T13:35:24;20.00;99.90
27619;DHT22;15039;50.830;4.730;2023-05-01T13:37:52;19.90;99.90
27619;DHT22;15039;50.830;4.730;2023-05-01T13:40:18;19.80;99.90
27619;DHT22;15039;50.830;4.730;2023-05-01T13:42:45;19.80;99.90
27619;DHT22;15039;50.830;4.730;2023-05-01T13:45:11;19.80;99.90
27619;DHT22;15039;50.830;4.730;2023-05-01T13:47:39;19.70;99.90
27619;DHT22;15039;50.830;4.730;2023-05-01T13:50:12;19.60;99.90
27619;DHT22;15039;50.830;4.730;2023-05-01T13:52:42;19.60;99.90
27619;DHT22;15039;50.830;4.730;2023-05-01T13:55:12;19.30;99.90
27619;DHT22;15039;50.830;4.730;2023-05-01T13:57:43;19.10;99.90
27619;DHT22;15039;50.830;4.730;2023-05-01T14:00:15;18.90;99.90
27619;DHT22;15039;50.830;4.730;2023-05-01T14:02:47;18.80;99.90
27619;DHT22;15039;50.830;4.730;2023-05-01T14:05:25;18.50;99.90
27619;DHT22;15039;50.830;4.730;2023-05-01T14:07:59;18.30;99.90
27619;DHT22;15039;50.830;4.730;2023-05-01T14:10:39;18.10;99.90
27619;DHT22;15039;50.830;4.730;2023-05-01T14:13:08;18.30;99.90
27619;DHT22;15039;50.830;4.730;2023-05-01T14:15:34;18.20;99.90
27619;DHT22;15039;50.830;4.730;2023-05-01T14:18:04;17.90;99.90
27619;DHT22;15039;50.830;4.730;2023-05-01T14:23:21;17.90;99.90
27619;DHT22;15039;50.830;4.730;2023-05-01T14:25:49;17.80;99.90
27619;DHT22;15039;50.830;4.730;2023-05-01T14:28:15;17.90;99.90
27619;DHT22;15039;50.830;4.730;2023-05-01T14:30:41;18.10;99.90
27619;DHT22;15039;50.830;4.730;2023-05-01T14:33:13;18.10;99.90
27619;DHT22;15039;50.830;4.730;2023-05-01T14:35:51;18.10;99.90
27619;DHT22;15039;50.830;4.730;2023-05-01T14:38:18;18.00;99.90
27619;DHT22;15039;50.830;4.730;2023-05-01T14:40:45;18.20;99.90
27619;DHT22;15039;50.830;4.730;2023-05-01T14:43:19;18.40;99.90
27619;DHT22;15039;50.830;4.730;2023-05-01T14:45:46;18.80;99.90
27619;DHT22;15039;50.830;4.730;2023-05-01T14:48:34;19.10;99.90
27619;DHT22;15039;50.830;4.730;2023-05-01T14:51:00;19.30;99.90
27619;DHT22;15039;50.830;4.730;2023-05-01T14:53:31;19.10;99.90
27619;DHT22;15039;50.830;4.730;2023-05-01T14:56:00;18.90;99.90
27619;DHT22;15039;50.830;4.730;2023-05-01T14:58:25;18.70;99.90
27619;DHT22;15039;50.830;4.730;2023-05-01T15:00:51;18.50;99.90
27619;DHT22;15039;50.830;4.730;2023-05-01T15:03:18;18.50;99.90
27619;DHT22;15039;50.830;4.730;2023-05-01T15:05:43;18.60;99.90
27619;DHT22;15039;50.830;4.730;2023-05-01T15:08:10;18.50;99.90
27619;DHT22;15039;50.830;4.730;2023-05-01T15:10:37;18.50;99.90
27619;DHT22;15039;50.830;4.730;2023-05-01T15:13:05;18.40;99.90
27619;DHT22;15039;50.830;4.730;2023-05-01T15:15:32;18.30;99.90
27619;DHT22;15039;50.830;4.730;2023-05-01T15:17:57;18.40;99.90
27619;DHT22;15039;50.830;4.730;2023-05-01T15:20:23;18.70;99.90
27619;DHT22;15039;50.830;4.730;2023-05-01T15:22:48;18.90;99.90
27619;DHT22;15039;50.830;4.730;2023-05-01T15:25:16;19.00;99.90
27619;DHT22;15039;50.830;4.730;2023-05-01T15:27:41;19.00;99.90
27619;DHT22;15039;50.830;4.730;2023-05-01T15:30:07;18.90;99.90
27619;DHT22;15039;50.830;4.730;2023-05-01T15:32:35;18.80;99.90
27619;DHT22;15039;50.830;4.730;2023-05-01T15:35:01;18.90;99.90
27619;DHT22;15039;50.830;4.730;2023-05-01T15:37:27;19.00;99.90
27619;DHT22;15039;50.830;4.730;2023-05-01T15:39:52;18.90;99.90
27619;DHT22;15039;50.830;4.730;2023-05-01T15:42:18;19.10;99.90
27619;DHT22;15039;50.830;4.730;2023-05-01T15:44:44;19.20;99.90
27619;DHT22;15039;50.830;4.730;2023-05-01T15:47:10;19.10;99.90
27619;DHT22;15039;50.830;4.730;2023-05-01T15:49:35;18.90;99.90
27619;DHT22;15039;50.830;4.730;2023-05-01T15:52:01;18.90;99.90
27619;DHT22;15039;50.830;4.730;2023-05-01T15:54:27;18.90;99.90
27619;DHT22;15039;50.830;4.730;2023-05-01T15:56:53;18.80;99.90
27619;DHT22;15039;50.830;4.730;2023-05-01T15:59:19;18.80;99.90
27619;DHT22;15039;50.830;4.730;2023-05-01T16:01:44;18.60;99.90
27619;DHT22;15039;50.830;4.730;2023-05-01T16:04:10;18.70;99.90
27619;DHT22;15039;50.830;4.730;2023-05-01T16:06:36;18.80;99.90
27619;DHT22;15039;50.830;4.730;2023-05-01T16:09:04;18.90;99.90
27619;DHT22;15039;50.830;4.730;2023-05-01T16:11:31;18.90;99.90
27619;DHT22;15039;50.830;4.730;2023-05-01T16:13:57;18.80;99.90
27619;DHT22;15039;50.830;4.730;2023-05-01T16:16:28;18.60;99.90
27619;DHT22;15039;50.830;4.730;2023-05-01T16:18:58;18.40;99.90